Ward, Pennsylvania
Current Conditions -  °F | °C
As of 9:15 AM on Friday 19 Dec 2014 (Local Time) from KN38 Reporting Station
Overcast Overcast  
Wind Chill: 14°   Ceiling: 1900
Heat Index: 27°   Visibility: 10mi
Dew Point: 19°   Wind: 17mph
Humidity: 74%   Direction: 320°NW
Pressure: 30.07"   Gusts: 23mph
Location:  41.669°N, 76.8999°W
Report Text: KN38 191415Z AUTO 32015G20KT 10SM OVC019 M03/M07 A3007 RMK AO2
Loading
Personal Weather Stations






























Interactive Weather Map New forecast layout! Learn more

10-Day Weather Forecast

Advertisements
Track Severe Weather on mobile